PROFILE

 METAR AND TAF INFORMATION
ADDS - METARS form results

(0528 UTC 17 October 2021)
http://aviationweather.gov/metar/data/
 
EKVG 170520Z AUTO 31002KT 9999 OVC029/// 04/02 Q1014
EKVG 170450Z AUTO 33002KT 9999 OVC029/// 05/02 Q1014
TAF EKVG 170424Z 1705/1712 04005KT 9999 SCT023 BKN030 BECMG 1709/1711 10010KT 

 AIRPORT MAP

 RUNWAY INFORMATION
Runway 13 Runway length 5902 ft Runway width 98 ft
Runway elevation 268 ft Runway displaced threshold 0 ft Runway heading 118
Runway 31 Runway length 5902 ft Runway width 98 ft
Runway elevation 252 ft Runway displaced threshold 0 ft Runway heading 298

 AIRPORT FREQUENCIES
Type AFIS Name AFIS Frequency 124.85 MHZ

 AIRPORT NEAR NAVIGATION AIDS
Type NDB Name Myggenes Frequency 337 KHZ
Type NDB Name Nolso Frequency 404 KHZ
Type NDB Name Vagar Frequency 348 KHZ